createdAt,value
2023-04-23T00:02:19.980Z,70.09
2023-04-23T00:07:32.993Z,69.08
2023-04-23T00:10:01.092Z,68.65
2023-04-23T00:12:29.721Z,67.43
2023-04-23T00:14:56.928Z,66.94
2023-04-23T00:17:23.748Z,67.96
2023-04-23T00:19:50.412Z,68.45
2023-04-23T00:22:17.445Z,68.62
2023-04-23T00:24:44.220Z,68.41
2023-04-23T00:27:10.954Z,68.34
2023-04-23T00:29:37.587Z,69.08
2023-04-23T00:32:04.756Z,68.66
2023-04-23T00:34:31.443Z,69.68
2023-04-23T00:36:58.066Z,69.88
2023-04-23T00:39:24.740Z,69.37
2023-04-23T00:41:51.759Z,70.51
2023-04-23T00:44:18.411Z,70.18
2023-04-23T00:46:46.495Z,70.50
2023-04-23T00:49:14.373Z,70.21
2023-04-23T00:54:12.818Z,70.78
2023-04-23T00:56:39.701Z,70.83
2023-04-23T00:59:06.464Z,71.92
2023-04-23T01:01:33.562Z,73.07
2023-04-23T01:06:33.918Z,74.96
2023-04-23T01:09:01.118Z,77.67
2023-04-23T01:11:27.948Z,78.03
2023-04-23T01:13:55.840Z,80.12
2023-04-23T01:16:22.544Z,80.91
2023-04-23T01:18:49.200Z,79.50
2023-04-23T01:21:17.251Z,82.51
2023-04-23T01:23:44.025Z,83.09
2023-04-23T01:26:11.081Z,84.86
2023-04-23T01:28:38.426Z,84.89
2023-04-23T01:31:05.612Z,84.46
2023-04-23T01:33:32.784Z,87.06
2023-04-23T01:36:00.869Z,88.38
2023-04-23T01:38:29.025Z,88.64
2023-04-23T01:40:55.693Z,87.93
2023-04-23T01:43:22.845Z,89.88
2023-04-23T01:45:49.673Z,89.10
2023-04-23T01:48:16.450Z,86.53
2023-04-23T01:50:43.855Z,87.63
2023-04-23T01:53:10.880Z,89.19
2023-04-23T01:55:39.456Z,91.06
2023-04-23T01:58:06.806Z,91.88
2023-04-23T02:00:33.469Z,90.80
2023-04-23T02:03:00.488Z,91.63
2023-04-23T02:05:29.138Z,92.00
2023-04-23T02:10:30.850Z,92.33
2023-04-23T02:12:59.360Z,91.89
2023-04-23T02:15:26.188Z,92.48
2023-04-23T02:17:53.151Z,92.43
2023-04-23T02:20:20.699Z,93.86
2023-04-23T02:22:48.541Z,93.64
2023-04-23T02:25:17.260Z,95.46
2023-04-23T02:27:44.775Z,96.97
2023-04-23T02:30:12.614Z,96.28
2023-04-23T02:32:39.727Z,98.07
2023-04-23T02:35:06.909Z,97.84
2023-04-23T02:37:34.027Z,97.97
2023-04-23T02:40:00.675Z,98.10
2023-04-23T02:42:27.415Z,97.61
2023-04-23T02:44:54.098Z,100.00
2023-04-23T02:47:20.926Z,100.00
2023-04-23T02:52:25.717Z,100.00
2023-04-23T02:54:52.327Z,100.00
2023-04-23T02:57:19.447Z,100.00
2023-04-23T02:59:46.564Z,100.00
2023-04-23T03:02:13.298Z,100.00
2023-04-23T03:04:40.535Z,100.00
2023-04-23T03:07:07.405Z,100.00
2023-04-23T03:09:34.127Z,100.00
2023-04-23T03:12:00.831Z,100.00
2023-04-23T03:14:27.479Z,100.00
2023-04-23T03:16:54.227Z,100.00
2023-04-23T03:19:20.855Z,100.00
2023-04-23T03:21:47.533Z,100.00
2023-04-23T03:24:15.362Z,100.00
2023-04-23T03:26:41.989Z,100.00
2023-04-23T03:31:39.988Z,100.00
2023-04-23T03:34:06.742Z,100.00
2023-04-23T03:36:33.470Z,100.00
2023-04-23T03:39:00.128Z,100.00
2023-04-23T03:41:26.761Z,100.00
2023-04-23T03:43:53.688Z,100.00
2023-04-23T03:46:20.374Z,100.00
2023-04-23T03:48:47.060Z,100.00
2023-04-23T03:51:13.764Z,100.00
2023-04-23T03:53:40.392Z,100.00
2023-04-23T03:58:38.498Z,100.00
2023-04-23T04:01:05.303Z,100.00
2023-04-23T04:08:38.273Z,100.00
2023-04-23T04:11:05.036Z,100.00
2023-04-23T04:13:31.713Z,100.00
2023-04-23T04:15:58.383Z,100.00
2023-04-23T04:18:25.031Z,100.00
2023-04-23T04:20:52.463Z,100.00
2023-04-23T04:23:19.298Z,100.00
2023-04-23T04:25:46.109Z,100.00
2023-04-23T04:28:12.991Z,100.00
2023-04-23T04:30:40.661Z,100.00
2023-04-23T04:33:07.288Z,100.00
2023-04-23T04:35:33.919Z,100.00
2023-04-23T04:38:00.585Z,100.00
2023-04-23T04:40:28.892Z,100.00
2023-04-23T04:42:55.607Z,100.00
2023-04-23T04:45:22.460Z,100.00
2023-04-23T04:47:49.180Z,100.00
2023-04-23T04:50:15.866Z,100.00
2023-04-23T04:52:42.501Z,100.00
2023-04-23T04:55:09.727Z,100.00
2023-04-23T04:57:36.804Z,100.00
2023-04-23T05:00:20.247Z,100.00
2023-04-23T05:02:47.993Z,100.00
2023-04-23T05:05:15.231Z,100.00
2023-04-23T05:07:41.972Z,100.00
2023-04-23T05:10:09.098Z,100.00
2023-04-23T05:12:35.868Z,100.00
2023-04-23T05:15:02.565Z,100.00
2023-04-23T05:20:00.523Z,100.00
2023-04-23T05:22:27.650Z,100.00
2023-04-23T05:24:54.408Z,100.00
2023-04-23T05:27:21.096Z,100.00
2023-04-23T05:29:47.798Z,100.00
2023-04-23T05:32:14.620Z,100.00
2023-04-23T05:34:41.842Z,100.00
2023-04-23T05:37:08.845Z,100.00
2023-04-23T05:39:35.514Z,100.00
2023-04-23T05:42:03.266Z,100.00
2023-04-23T05:47:03.753Z,99.14
2023-04-23T05:49:30.681Z,100.00
2023-04-23T05:51:59.481Z,99.41
2023-04-23T05:54:26.638Z,100.00
2023-04-23T05:56:54.649Z,98.96
2023-04-23T05:59:22.245Z,99.65
2023-04-23T06:01:49.485Z,100.00
2023-04-23T06:04:16.771Z,100.00
2023-04-23T06:06:43.955Z,100.00
2023-04-23T06:11:44.563Z,97.01
2023-04-23T06:14:11.267Z,96.24
2023-04-23T06:16:37.874Z,95.36
2023-04-23T06:19:04.547Z,95.79
2023-04-23T06:21:31.538Z,97.34
2023-04-23T06:23:58.270Z,94.83
2023-04-23T06:26:24.973Z,93.64
2023-04-23T06:28:51.618Z,93.12
2023-04-23T06:31:18.287Z,92.63
2023-04-23T06:33:44.917Z,88.42
2023-04-23T06:36:11.574Z,87.16
2023-04-23T06:38:38.610Z,88.17
2023-04-23T06:41:05.624Z,88.73
2023-04-23T06:43:32.951Z,89.13
2023-04-23T06:45:59.603Z,89.82
2023-04-23T06:48:26.719Z,88.77
2023-04-23T06:50:53.437Z,88.62
2023-04-23T06:53:20.217Z,89.12
2023-04-23T06:55:46.930Z,90.23
2023-04-23T06:58:14.230Z,89.43
2023-04-23T07:00:42.112Z,88.33
2023-04-23T07:03:09.084Z,85.44
2023-04-23T07:05:36.230Z,85.39
2023-04-23T07:08:02.964Z,79.40
2023-04-23T07:10:29.612Z,78.61
2023-04-23T07:15:27.741Z,75.26
2023-04-23T07:20:26.367Z,78.17
2023-04-23T07:22:53.113Z,78.29
2023-04-23T07:25:19.852Z,76.46
2023-04-23T07:27:46.475Z,79.99
2023-04-23T07:30:13.702Z,79.40
2023-04-23T07:32:40.511Z,81.64
2023-04-23T07:35:08.777Z,80.07
2023-04-23T07:37:35.569Z,79.23
2023-04-23T07:40:02.662Z,73.96
2023-04-23T07:42:29.341Z,74.72
2023-04-23T07:44:56.013Z,77.40
2023-04-23T07:47:22.984Z,79.20
2023-04-23T07:49:49.855Z,76.38
2023-04-23T07:52:17.182Z,76.50
2023-04-23T07:54:44.605Z,76.21
2023-04-23T07:57:12.448Z,76.19
2023-04-23T07:59:42.282Z,75.97
2023-04-23T08:02:09.381Z,77.47
2023-04-23T08:04:36.268Z,73.21
2023-04-23T08:07:03.056Z,73.71
2023-04-23T08:09:29.674Z,73.60
2023-04-23T08:11:57.813Z,77.24
2023-04-23T08:14:24.474Z,78.53
2023-04-23T08:16:51.107Z,78.48
2023-04-23T08:19:17.799Z,79.69
2023-04-23T08:21:44.445Z,79.97
2023-04-23T08:24:11.264Z,77.71
2023-04-23T08:26:37.968Z,79.15
2023-04-23T08:29:05.497Z,80.35
2023-04-23T08:31:32.793Z,78.75
2023-04-23T08:33:59.643Z,78.98
2023-04-23T08:36:27.817Z,79.24
2023-04-23T08:38:54.432Z,79.99
2023-04-23T08:41:23.983Z,78.69
2023-04-23T08:44:02.380Z,77.35
2023-04-23T08:46:33.165Z,77.94
2023-04-23T08:49:01.072Z,79.18
2023-04-23T08:51:30.640Z,79.75
2023-04-23T08:53:59.522Z,80.11
2023-04-23T08:56:27.638Z,79.67
2023-04-23T08:58:56.876Z,78.35
2023-04-23T09:01:23.978Z,77.04
2023-04-23T09:03:51.834Z,74.81
2023-04-23T09:06:20.061Z,75.65
2023-04-23T09:08:46.972Z,73.90
2023-04-23T09:11:14.161Z,70.26
2023-04-23T09:13:41.726Z,70.93
2023-04-23T09:16:08.634Z,72.21
2023-04-23T09:18:35.985Z,72.75
2023-04-23T09:21:04.569Z,70.92
2023-04-23T09:23:32.230Z,70.86
2023-04-23T09:25:58.977Z,72.05
2023-04-23T09:28:36.530Z,70.24
2023-04-23T09:31:05.732Z,67.47
2023-04-23T09:36:15.852Z,69.57
2023-04-23T09:38:42.518Z,69.74
2023-04-23T09:41:26.068Z,68.82
2023-04-23T09:43:56.849Z,64.72
2023-04-23T09:46:40.585Z,62.56
2023-04-23T09:49:08.090Z,63.96
2023-04-23T09:51:39.692Z,60.31
2023-04-23T09:56:51.215Z,56.01
2023-04-23T09:59:45.797Z,57.22
2023-04-23T10:02:15.614Z,56.73
2023-04-23T10:09:43.977Z,58.04
2023-04-23T10:12:27.817Z,57.11
2023-04-23T10:14:59.865Z,56.45
2023-04-23T10:20:01.937Z,55.67
2023-04-23T10:22:30.902Z,55.55
2023-04-23T10:25:01.144Z,55.65
2023-04-23T10:27:44.222Z,54.21
2023-04-23T10:30:16.515Z,52.55
2023-04-23T10:32:45.232Z,54.87
2023-04-23T10:35:12.006Z,56.07
2023-04-23T10:37:39.361Z,53.81
2023-04-23T10:40:13.046Z,55.61
2023-04-23T10:42:44.606Z,54.15
2023-04-23T10:47:49.085Z,54.60
2023-04-23T10:50:21.371Z,52.04
2023-04-23T10:52:51.792Z,53.21
2023-04-23T10:55:20.926Z,51.94
2023-04-23T10:58:00.792Z,53.15
2023-04-23T11:00:30.237Z,50.31
2023-04-23T11:02:57.100Z,51.21
2023-04-23T11:05:25.791Z,50.71
2023-04-23T11:10:57.272Z,47.67
2023-04-23T11:13:28.170Z,46.91
2023-04-23T11:16:14.597Z,47.44
2023-04-23T11:22:01.689Z,45.20
2023-04-23T11:24:34.031Z,45.13
2023-04-23T11:27:01.550Z,42.59
2023-04-23T11:29:28.853Z,43.47
2023-04-23T11:34:26.531Z,44.19
2023-04-23T11:36:54.966Z,44.39
2023-04-23T11:39:24.889Z,45.25
2023-04-23T11:41:52.597Z,46.84
2023-04-23T11:44:23.106Z,45.43
2023-04-23T11:46:50.787Z,46.10
2023-04-23T11:49:18.983Z,46.34
2023-04-23T11:51:46.959Z,46.98
2023-04-23T11:54:14.958Z,48.17
2023-04-23T11:56:42.217Z,46.71
2023-04-23T11:59:09.751Z,47.37
2023-04-23T12:01:57.126Z,45.93
2023-04-23T12:04:26.324Z,46.46
2023-04-23T12:06:54.875Z,46.10
2023-04-23T12:09:27.239Z,45.42
2023-04-23T12:11:54.300Z,46.36
2023-04-23T12:14:29.175Z,48.19
2023-04-23T12:19:30.418Z,44.55
2023-04-23T12:22:04.568Z,44.59
2023-04-23T12:24:45.465Z,43.25
2023-04-23T12:27:16.070Z,44.27
2023-04-23T12:32:27.157Z,45.34
2023-04-23T12:34:57.216Z,44.63
2023-04-23T12:37:28.940Z,43.80
2023-04-23T12:42:28.018Z,44.46
2023-04-23T12:44:57.448Z,44.39
2023-04-23T12:47:24.379Z,43.55
2023-04-23T12:49:54.080Z,43.33
2023-04-23T12:52:21.054Z,42.37
2023-04-23T12:54:52.002Z,42.78
2023-04-23T12:57:23.380Z,40.70
2023-04-23T12:59:50.442Z,40.99
2023-04-23T13:02:17.336Z,40.30
2023-04-23T13:04:44.227Z,40.93
2023-04-23T13:07:10.934Z,41.34
2023-04-23T13:09:37.549Z,41.07
2023-04-23T13:12:04.421Z,41.44
2023-04-23T13:14:32.469Z,41.38
2023-04-23T13:16:59.205Z,41.25
2023-04-23T13:19:26.515Z,40.42
2023-04-23T13:21:53.861Z,40.52
2023-04-23T13:24:20.728Z,40.58
2023-04-23T13:26:47.450Z,40.10
2023-04-23T13:29:14.203Z,40.39
2023-04-23T13:31:41.287Z,41.25
2023-04-23T13:34:08.429Z,40.44
2023-04-23T13:36:35.069Z,40.58
2023-04-23T13:39:01.773Z,40.47
2023-04-23T13:41:28.404Z,41.66
2023-04-23T13:43:55.007Z,41.87
2023-04-23T13:46:21.854Z,42.34
2023-04-23T13:48:48.489Z,41.52
2023-04-23T13:51:33.358Z,41.70
2023-04-23T13:54:01.875Z,40.95
2023-04-23T13:56:30.354Z,41.68
2023-04-23T13:59:15.546Z,41.30
2023-04-23T14:01:47.393Z,41.32
2023-04-23T14:04:14.165Z,42.19
2023-04-23T14:06:40.990Z,41.28
2023-04-23T14:09:07.676Z,42.03
2023-04-23T14:11:34.416Z,41.88
2023-04-23T14:14:01.438Z,42.73
2023-04-23T14:16:28.290Z,43.44
2023-04-23T14:18:55.144Z,43.37
2023-04-23T14:21:22.762Z,42.81
2023-04-23T14:23:52.103Z,41.71
2023-04-23T14:32:07.525Z,41.28
2023-04-23T14:34:36.884Z,41.03
2023-04-23T14:37:04.028Z,41.24
2023-04-23T14:39:30.938Z,40.98
2023-04-23T14:41:57.599Z,40.91
2023-04-23T14:44:26.589Z,42.07
2023-04-23T14:46:53.482Z,42.14
2023-04-23T14:49:23.285Z,41.32
2023-04-23T14:51:54.434Z,41.69
2023-04-23T14:54:24.185Z,43.10
2023-04-23T14:59:30.036Z,42.19
2023-04-23T15:01:57.198Z,43.27
2023-04-23T15:04:24.058Z,43.76
2023-04-23T15:06:50.774Z,42.97
2023-04-23T15:09:17.761Z,43.44
2023-04-23T15:11:44.607Z,43.00
2023-04-23T15:14:25.833Z,43.95
2023-04-23T15:16:52.781Z,43.97
2023-04-23T15:19:19.534Z,44.76
2023-04-23T15:21:46.936Z,45.33
2023-04-23T15:26:49.794Z,41.99
2023-04-23T15:29:16.695Z,42.52
2023-04-23T15:31:43.530Z,43.15
2023-04-23T15:34:11.722Z,42.50
2023-04-23T15:36:38.516Z,43.13
2023-04-23T15:39:06.588Z,42.27
2023-04-23T15:41:33.404Z,43.07
2023-04-23T15:44:00.549Z,43.40
2023-04-23T15:46:27.206Z,44.28
2023-04-23T15:48:53.881Z,44.35
2023-04-23T15:51:20.549Z,44.34
2023-04-23T15:53:47.265Z,46.11
2023-04-23T15:56:13.914Z,48.25
2023-04-23T15:58:40.681Z,46.05
2023-04-23T16:01:07.640Z,46.79
2023-04-23T16:03:34.739Z,54.94
2023-04-23T16:06:01.995Z,57.78
2023-04-23T16:08:28.717Z,58.03
2023-04-23T16:10:57.237Z,64.69
2023-04-23T16:13:24.594Z,70.51
2023-04-23T16:15:51.425Z,68.85
2023-04-23T16:18:18.194Z,69.15
2023-04-23T16:20:44.992Z,65.82
2023-04-23T16:23:11.736Z,68.03
2023-04-23T16:25:38.998Z,65.42
2023-04-23T16:28:05.716Z,68.57
2023-04-23T16:30:32.401Z,65.51
2023-04-23T16:38:11.253Z,61.22
2023-04-23T16:40:39.852Z,61.34
2023-04-23T16:43:06.579Z,62.50
2023-04-23T16:45:35.077Z,62.74
2023-04-23T16:48:01.802Z,62.27
2023-04-23T16:50:28.466Z,65.51
2023-04-23T16:52:56.122Z,73.85
2023-04-23T16:55:22.794Z,75.00
2023-04-23T17:02:52.168Z,88.25
2023-04-23T17:05:21.261Z,87.16
2023-04-23T17:07:48.004Z,88.99
2023-04-23T17:10:17.437Z,90.38
2023-04-23T17:12:44.123Z,91.26
2023-04-23T17:15:11.358Z,94.06
2023-04-23T17:17:38.677Z,95.02
2023-04-23T17:22:44.692Z,94.56
2023-04-23T17:25:11.492Z,95.37
2023-04-23T17:27:38.169Z,94.58
2023-04-23T17:30:05.720Z,93.73
2023-04-23T17:32:32.582Z,92.65
2023-04-23T17:35:09.534Z,92.37
2023-04-23T17:37:37.119Z,95.43
2023-04-23T17:40:06.060Z,95.48
2023-04-23T17:42:33.292Z,95.93
2023-04-23T17:44:59.994Z,95.07
2023-04-23T17:47:27.839Z,95.78
2023-04-23T17:49:54.678Z,96.34
2023-04-23T17:52:21.458Z,95.08
2023-04-23T17:54:48.134Z,94.89
2023-04-23T17:57:14.748Z,95.95
2023-04-23T17:59:41.725Z,99.27
2023-04-23T18:02:08.872Z,99.97
2023-04-23T18:04:37.025Z,100.00
2023-04-23T18:07:03.744Z,98.84
2023-04-23T18:09:30.407Z,95.39
2023-04-23T18:11:59.275Z,96.70
2023-04-23T18:14:26.019Z,98.39
2023-04-23T18:16:52.894Z,98.65
2023-04-23T18:19:19.672Z,99.96
2023-04-23T18:21:46.429Z,100.00
2023-04-23T18:24:13.593Z,100.00
2023-04-23T18:26:40.234Z,100.00
2023-04-23T18:29:06.936Z,100.00
2023-04-23T18:31:33.762Z,100.00
2023-04-23T18:34:03.880Z,100.00
2023-04-23T18:36:32.968Z,100.00
2023-04-23T18:39:00.288Z,100.00
2023-04-23T18:41:30.125Z,100.00
2023-04-23T18:43:57.395Z,100.00
2023-04-23T18:46:24.184Z,100.00
2023-04-23T18:49:29.479Z,100.00
2023-04-23T18:51:56.515Z,100.00
2023-04-23T18:54:25.721Z,100.00
2023-04-23T18:56:55.732Z,100.00
2023-04-23T18:59:22.425Z,100.00
2023-04-23T19:01:50.016Z,100.00
2023-04-23T19:04:16.993Z,100.00
2023-04-23T19:06:43.807Z,100.00
2023-04-23T19:09:10.614Z,100.00
2023-04-23T19:11:38.403Z,100.00
2023-04-23T19:14:05.366Z,100.00
2023-04-23T19:19:04.693Z,100.00
2023-04-23T19:21:31.885Z,100.00
2023-04-23T19:23:58.519Z,100.00
2023-04-23T19:26:25.182Z,100.00
2023-04-23T19:28:51.885Z,100.00
2023-04-23T19:31:18.672Z,100.00
2023-04-23T19:33:46.533Z,100.00
2023-04-23T19:36:14.169Z,100.00
2023-04-23T19:38:41.161Z,100.00
2023-04-23T19:41:08.267Z,100.00
2023-04-23T19:43:34.996Z,99.93
2023-04-23T19:46:02.213Z,96.90
2023-04-23T19:48:28.947Z,98.59
2023-04-23T19:50:55.761Z,99.08
2023-04-23T19:53:22.372Z,99.74
2023-04-23T19:55:49.006Z,100.00
2023-04-23T20:00:49.330Z,99.66
2023-04-23T20:03:16.273Z,98.71
2023-04-23T20:08:29.113Z,96.02
2023-04-23T20:13:32.056Z,94.95
2023-04-23T20:15:59.415Z,94.05
2023-04-23T20:18:29.308Z,93.85
2023-04-23T20:20:56.005Z,92.36
2023-04-23T20:23:22.706Z,93.27
2023-04-23T20:25:49.428Z,92.84
2023-04-23T20:28:16.494Z,93.59
2023-04-23T20:30:43.175Z,95.13
2023-04-23T20:33:10.643Z,93.69
2023-04-23T20:35:39.824Z,93.97
2023-04-23T20:38:06.551Z,93.47
2023-04-23T20:40:34.777Z,93.11
2023-04-23T20:43:01.517Z,93.28
2023-04-23T20:45:28.174Z,94.10
2023-04-23T20:50:28.717Z,95.17
2023-04-23T20:52:55.401Z,95.97
2023-04-23T20:55:22.124Z,94.57
2023-04-23T20:57:48.835Z,95.71
2023-04-23T21:00:16.082Z,94.90
2023-04-23T21:02:44.349Z,91.98
2023-04-23T21:05:12.232Z,91.33
2023-04-23T21:07:39.050Z,89.81
2023-04-23T21:10:06.328Z,89.36
2023-04-23T21:12:33.100Z,87.04
2023-04-23T21:14:59.728Z,83.80
2023-04-23T21:17:26.557Z,86.46
2023-04-23T21:19:53.274Z,87.09
2023-04-23T21:22:19.880Z,84.98
2023-04-23T21:27:21.950Z,85.96
2023-04-23T21:29:48.863Z,83.77
2023-04-23T21:32:16.187Z,85.19
2023-04-23T21:34:43.073Z,83.88
2023-04-23T21:37:09.773Z,82.49
2023-04-23T21:39:36.480Z,82.06
2023-04-23T21:42:03.388Z,83.62
2023-04-23T21:44:31.472Z,82.42
2023-04-23T21:46:58.213Z,82.16
2023-04-23T21:49:24.954Z,83.93
2023-04-23T21:51:54.709Z,85.63
2023-04-23T21:54:22.185Z,86.74
2023-04-23T21:56:48.943Z,85.19
2023-04-23T22:01:46.949Z,85.70
2023-04-23T22:04:14.333Z,85.44
2023-04-23T22:06:41.175Z,87.22
2023-04-23T22:09:07.893Z,86.63
2023-04-23T22:11:34.849Z,85.44
2023-04-23T22:14:02.024Z,87.04
2023-04-23T22:16:29.366Z,87.52
2023-04-23T22:18:58.824Z,87.14
2023-04-23T22:21:25.486Z,87.21
2023-04-23T22:23:52.137Z,86.68
2023-04-23T22:26:18.823Z,87.10
2023-04-23T22:28:45.483Z,88.41
2023-04-23T22:31:12.125Z,88.32
2023-04-23T22:33:39.696Z,87.31
2023-04-23T22:36:06.982Z,88.16
2023-04-23T22:38:33.802Z,87.28
2023-04-23T22:41:00.462Z,86.41
2023-04-23T22:43:27.178Z,87.87
2023-04-23T22:45:53.818Z,86.72
2023-04-23T22:48:21.524Z,85.87
2023-04-23T22:50:51.086Z,85.86
2023-04-23T22:53:19.688Z,85.67
2023-04-23T22:55:46.802Z,84.90
2023-04-23T22:58:13.451Z,83.50
2023-04-23T23:00:40.549Z,83.68
2023-04-23T23:03:07.314Z,84.17
2023-04-23T23:05:34.387Z,85.42
2023-04-23T23:08:01.017Z,82.60
2023-04-23T23:10:28.929Z,81.18
2023-04-23T23:12:55.608Z,81.58
2023-04-23T23:15:22.244Z,81.24
2023-04-23T23:17:48.911Z,81.01
2023-04-23T23:20:16.589Z,80.63
2023-04-23T23:22:43.297Z,80.78
2023-04-23T23:25:10.062Z,81.71
2023-04-23T23:27:36.742Z,81.29
2023-04-23T23:30:06.229Z,81.38
2023-04-23T23:32:33.470Z,82.26
2023-04-23T23:35:00.570Z,81.91
2023-04-23T23:37:27.455Z,83.22
2023-04-23T23:39:54.108Z,82.63
2023-04-23T23:42:20.767Z,81.49
2023-04-23T23:44:47.427Z,81.27
2023-04-23T23:47:14.196Z,82.13
2023-04-23T23:49:42.176Z,80.73
2023-04-23T23:52:09.030Z,81.20
2023-04-23T23:54:36.131Z,80.75
2023-04-23T23:57:02.832Z,81.10
2023-04-23T23:59:29.467Z,80.67
